地図

経路データ

SID SEASON NUMBER BASIN SUBBASIN NAME ISO_TIME NATURE LAT LON WMO_WIND WMO_PRES WMO_AGENCY TRACK_TYPE DIST2LAND LANDFALL IFLAG USA_AGENCY USA_ATCF_ID USA_LAT USA_LON USA_RECORD USA_STATUS USA_WIND USA_PRES USA_SSHS USA_R34_NE USA_R34_SE USA_R34_SW USA_R34_NW USA_R50_NE USA_R50_SE USA_R50_SW USA_R50_NW USA_R64_NE USA_R64_SE USA_R64_SW USA_R64_NW USA_POCI USA_ROCI USA_RMW USA_EYE TOKYO_LAT TOKYO_LON TOKYO_GRADE TOKYO_WIND TOKYO_PRES TOKYO_R50_DIR TOKYO_R50_LONG TOKYO_R50_SHORT TOKYO_R30_DIR TOKYO_R30_LONG TOKYO_R30_SHORT TOKYO_LAND CMA_LAT CMA_LON CMA_CAT CMA_WIND CMA_PRES HKO_LAT HKO_LON HKO_CAT HKO_WIND HKO_PRES NEWDELHI_LAT NEWDELHI_LON NEWDELHI_GRADE NEWDELHI_WIND NEWDELHI_PRES NEWDELHI_CI NEWDELHI_DP NEWDELHI_POCI REUNION_LAT REUNION_LON REUNION_TYPE REUNION_WIND REUNION_PRES REUNION_TNUM REUNION_CI REUNION_RMW REUNION_R34_NE REUNION_R34_SE REUNION_R34_SW REUNION_R34_NW REUNION_R50_NE REUNION_R50_SE REUNION_R50_SW REUNION_R50_NW REUNION_R64_NE REUNION_R64_SE REUNION_R64_SW REUNION_R64_NW BOM_LAT BOM_LON BOM_TYPE BOM_WIND BOM_PRES BOM_TNUM BOM_CI BOM_RMW BOM_R34_NE BOM_R34_SE BOM_R34_SW BOM_R34_NW BOM_R50_NE BOM_R50_SE BOM_R50_SW BOM_R50_NW BOM_R64_NE BOM_R64_SE BOM_R64_SW BOM_R64_NW BOM_ROCI BOM_POCI BOM_EYE BOM_POS_METHOD BOM_PRES_METHOD NADI_LAT NADI_LON NADI_CAT NADI_WIND NADI_PRES WELLINGTON_LAT WELLINGTON_LON WELLINGTON_WIND WELLINGTON_PRES DS824_LAT DS824_LON DS824_STAGE DS824_WIND DS824_PRES TD9636_LAT TD9636_LON TD9636_STAGE TD9636_WIND TD9636_PRES TD9635_LAT TD9635_LON TD9635_WIND TD9635_PRES TD9635_ROCI NEUMANN_LAT NEUMANN_LON NEUMANN_CLASS NEUMANN_WIND NEUMANN_PRES MLC_LAT MLC_LON MLC_CLASS MLC_WIND MLC_PRES USA_GUST BOM_GUST BOM_GUST_PER REUNION_GUST REUNION_GUST_PER USA_SEAHGT USA_SEARAD_NE USA_SEARAD_SE USA_SEARAD_SW USA_SEARAD_NW STORM_SPEED STORM_DIR
1879265N20089 1879 21 NI BB NOT_NAMED 1879-09-22 00:00:00 TS 19.6000 88.5000 main 199 199 _________O____ -1 19.6000 88.5000 TC 30 0 0
1879265N20089 1879 21 NI BB NOT_NAMED 1879-09-22 03:00:00 TS 19.6000 88.5000 main 199 199 _________PO___ -1 19.6000 88.5000 TC 30 19.6000 88.5000 1 0 0
1879265N20089 1879 21 NI BB NOT_NAMED 1879-09-22 06:00:00 TS 19.6013 88.4931 main 199 199 _________OP___ -1 19.6000 88.5000 TC 30 19.6032 88.4828 1 0 0
1879265N20089 1879 21 NI BB NOT_NAMED 1879-09-22 09:00:00 TS 19.6022 88.4882 main 199 199 _________PP___ -1 19.6000 88.5000 TC 30 19.6051 88.4725 1 0 0
1879265N20089 1879 21 NI BB NOT_NAMED 1879-09-22 12:00:00 TS 19.6022 88.4880 main 199 199 _________OP___ -1 19.6000 88.5000 TC 30 19.6044 88.4760 1 0 0
1879265N20089 1879 21 NI BB NOT_NAMED 1879-09-22 15:00:00 TS 19.6000 88.5000 main 199 199 _________PO___ -1 19.6000 88.5000 TC 30 19.6000 88.5000 1 0 99
1879265N20089 1879 21 NI BB NOT_NAMED 1879-09-22 18:00:00 TS 19.5959 88.5223 main 199 199 _________OP___ -1 19.6000 88.5000 TC 30 19.5917 88.5446 1 1 102
1879265N20089 1879 21 NI BB NOT_NAMED 1879-09-22 21:00:00 TS 19.5886 88.5562 main 207 199 _________PP___ -1 19.5925 88.5300 TC 30 19.5847 88.5824 1 0 0
1879265N20089 1879 21 NI BB NOT_NAMED 1879-09-23 00:00:00 TS 19.5927 88.5395 main 199 191 _________OP___ -1 19.6000 88.5000 TC 30 19.5854 88.5789 1 1 284
1879265N20089 1879 21 NI BB NOT_NAMED 1879-09-23 03:00:00 TS 19.6212 88.4263 main 191 167 _________PO___ -1 19.6424 88.3525 TC 30 19.6000 88.5000 1 3 283
1879265N20089 1879 21 NI BB NOT_NAMED 1879-09-23 06:00:00 TS 19.6679 88.2000 main 167 142 _________OP___ -1 19.7000 88.1000 TC 30 19.6359 88.3001 1 5 281
1879265N20089 1879 21 NI BB NOT_NAMED 1879-09-23 09:00:00 TS 19.7178 87.8913 main 142 109 _________PP___ -1 19.7501 87.7575 TC 30 19.6854 88.0251 1 6 280
1879265N20089 1879 21 NI BB NOT_NAMED 1879-09-23 12:00:00 TS 19.7711 87.5563 main 109 83 _________OP___ -1 19.8000 87.4000 TC 30 19.7421 87.7126 1 6 280
1879265N20089 1879 21 NI BB NOT_NAMED 1879-09-23 15:00:00 TS 19.8249 87.2675 main 83 54 _________PO___ -1 19.8499 87.1350 TC 30 19.8000 87.4000 1 5 281
1879265N20089 1879 21 NI BB NOT_NAMED 1879-09-23 18:00:00 TS 19.8708 87.0294 main 54 43 _________OP___ -1 19.9000 86.9000 TC 30 19.8415 87.1589 1 5 281
1879265N20089 1879 21 NI BB NOT_NAMED 1879-09-23 21:00:00 TS 19.9135 86.7935 main 43 20 _________PP___ -1 19.9424 86.6649 TC 30 19.8845 86.9222 1 5 282
1879265N20089 1879 21 NI BB NOT_NAMED 1879-09-24 00:00:00 TS 19.9676 86.5372 main 10 0 _________OP___ -1 20.0000 86.4000 TC 30 19.9352 86.6744 1 5 284
1879265N20089 1879 21 NI BB NOT_NAMED 1879-09-24 03:00:00 TS 20.0463 86.2325 main 0 0 _________PO___ -1 20.0925 86.0650 TC 30 20.0000 86.4000 1 6 286
1879265N20089 1879 21 NI BB NOT_NAMED 1879-09-24 06:00:00 TS 20.1448 85.8935 main 0 0 _________OP___ -1 20.2000 85.7000 TC 30 20.0896 86.0870 1 7 287
1879265N20089 1879 21 NI BB NOT_NAMED 1879-09-24 09:00:00 TS 20.2461 85.5513 main 0 0 _________PP___ -1 20.2999 85.3574 TC 30 20.1924 85.7451 1 7 287
1879265N20089 1879 21 NI BB NOT_NAMED 1879-09-24 12:00:00 TS 20.3495 85.1903 main 0 0 _________OP___ -1 20.4000 85.0000 TC 30 20.2989 85.3807 1 7 286
1879265N20089 1879 21 NI BB NOT_NAMED 1879-09-24 15:00:00 TS 20.4537 84.8038 main 0 0 _________PO___ -1 20.5075 84.6075 TC 30 20.4000 85.0000 1 7 285
1879265N20089 1879 21 NI BB NOT_NAMED 1879-09-24 18:00:00 TS 20.5408 84.4212 main 0 0 _________OP___ -1 20.6000 84.2000 TC 30 20.4816 84.6425 1 7 282
1879265N20089 1879 21 NI BB NOT_NAMED 1879-09-24 21:00:00 TS 20.6068 84.0485 main 0 0 _________PP___ -1 20.6572 83.8299 TC 30 20.5565 84.2671 1 8 279
1879265N20089 1879 21 NI BB NOT_NAMED 1879-09-25 00:00:00 TS 20.6641 83.6291 main 0 0 _________OP___ -1 20.7000 83.4000 TC 30 20.6282 83.8581 1 9 277
1879265N20089 1879 21 NI BB NOT_NAMED 1879-09-25 03:00:00 TS 20.7213 83.1112 main 0 0 _________PO___ -1 20.7426 82.8224 TC 30 20.7000 83.4000 1 10 277
1879265N20089 1879 21 NI BB NOT_NAMED 1879-09-25 06:00:00 TS 20.7856 82.5335 main 0 0 _________OP___ -1 20.8000 82.2000 TC 30 20.7713 82.8671 1 11 278
1879265N20089 1879 21 NI BB NOT_NAMED 1879-09-25 09:00:00 TS 20.8676 81.9649 main 0 0 _________PP___ -1 20.8923 81.6425 TC 30 20.8430 82.2873 1 11 279
1879265N20089 1879 21 NI BB NOT_NAMED 1879-09-25 12:00:00 TS 20.9590 81.3944 main 0 0 _________OP___ -1 21.0000 81.1000 TC 30 20.9181 81.6888 1 11 280
1879265N20089 1879 21 NI BB NOT_NAMED 1879-09-25 15:00:00 TS 21.0499 80.8212 main 0 0 _________PO___ -1 21.0999 80.5424 TC 30 21.0000 81.1000 1 11 280
1879265N20089 1879 21 NI BB NOT_NAMED 1879-09-25 18:00:00 TS 21.1525 80.2582 main 0 0 _________OP___ -1 21.2000 80.0000 TC 30 21.1051 80.5163 1 11 282
1879265N20089 1879 21 NI BB NOT_NAMED 1879-09-25 21:00:00 TS 21.2652 79.7041 main 0 0 _________PP___ -1 21.3151 79.4551 TC 30 21.2153 79.9531 1 10 282
1879265N20089 1879 21 NI BB NOT_NAMED 1879-09-26 00:00:00 TS 21.3589 79.2191 main 0 0 _________OP___ -1 21.4000 79.0000 TC 30 21.3178 79.4382 1 8 280
1879265N20089 1879 21 NI BB NOT_NAMED 1879-09-26 03:00:00 TS 21.4036 78.8562 main 0 0 _________PO___ -1 21.4072 78.7123 TC 30 21.4000 79.0000 1 6 275
1879265N20089 1879 21 NI BB NOT_NAMED 1879-09-26 06:00:00 TS 21.4147 78.5811 main 0 0 _________OP___ -1 21.4000 78.5000 TC 30 21.4294 78.6623 1 5 274
1879265N20089 1879 21 NI BB NOT_NAMED 1879-09-26 09:00:00 TS 21.4382 78.3222 main 0 0 _________PP___ -1 21.4350 78.2425 TC 30 21.4414 78.4018 1 5 278
1879265N20089 1879 21 NI BB NOT_NAMED 1879-09-26 12:00:00 TS 21.4789 78.0952 main 0 0 _________OP___ -1 21.5000 78.0000 TC 30 21.4578 78.1905 1 4 285
1879265N20089 1879 21 NI AS NOT_NAMED 1879-09-26 15:00:00 TS 21.5425 77.8962 main 0 0 _________PO___ -1 21.5849 77.7925 TC 30 21.5000 78.0000 1 4 293
1879265N20089 1879 21 NI AS NOT_NAMED 1879-09-26 18:00:00 TS 21.6399 77.6968 main 0 0 _________OP___ -1 21.7000 77.6000 TC 30 21.5798 77.7936 1 4 301
1879265N20089 1879 21 NI AS NOT_NAMED 1879-09-26 21:00:00 TS 21.7623 77.5036 main 0 0 _________PP___ -1 21.8349 77.4074 TC 30 21.6897 77.5997 1 5 307
1879265N20089 1879 21 NI AS NOT_NAMED 1879-09-27 00:00:00 TS 21.9149 77.3030 main 0 0 _________OP___ -1 22.0000 77.2000 TC 30 21.8298 77.4060 1 5 310
1879265N20089 1879 21 NI AS NOT_NAMED 1879-09-27 03:00:00 TS 22.0925 77.0787 main 0 0 _________PO___ -1 22.1850 76.9575 TC 30 22.0000 77.2000 1 6 311
1879265N20089 1879 21 NI AS NOT_NAMED 1879-09-27 06:00:00 TS 22.2961 76.8322 main 0 0 _________OP___ -1 22.4000 76.7000 TC 30 22.1922 76.9644 1 6 313
1879265N20089 1879 21 NI AS NOT_NAMED 1879-09-27 09:00:00 TS 22.5275 76.5825 main 0 0 _________PP___ -1 22.6425 76.4499 TC 30 22.4125 76.7150 1 7 316
1879265N20089 1879 21 NI AS NOT_NAMED 1879-09-27 12:00:00 TS 22.7758 76.3290 main 0 0 _________OP___ -1 22.9000 76.2000 TC 30 22.6515 76.4581 1 7 317
1879265N20089 1879 21 NI AS NOT_NAMED 1879-09-27 15:00:00 TS 23.0250 76.0750 main 0 0 _________PO___ -1 23.1500 75.9499 TC 30 22.9000 76.2000 1 7 317
1879265N20089 1879 21 NI AS NOT_NAMED 1879-09-27 18:00:00 TS 23.2572 75.8405 main 0 0 _________OP___ -1 23.4000 75.7000 TC 30 23.1501 75.9459 1 6 317
1879265N20089 1879 21 NI AS NOT_NAMED 1879-09-27 21:00:00 TS 23.5002 75.5974 main 0 0 _________PP___ -1 23.6501 75.4502 TC 30 23.4002 75.6956 1 6 318
1879265N20089 1879 21 NI AS NOT_NAMED 1879-09-28 00:00:00 TS 23.7335 75.3650 main 0 0 _________OP___ -1 23.9000 75.2000 TC 30 23.6502 75.4475 1 5 318
1879265N20089 1879 21 NI AS NOT_NAMED 1879-09-28 03:00:00 NR 23.9000 75.2000 main 0 __________O___ -1 TC 23.9000 75.2000 1 5 317

IBTrACS Databaseについて

本データベースは、米国NOAAが公開する1842年以降の世界の熱帯低気圧のベストトラックデータアーカイブInternational Best Track Archive for Climate Stewardship (IBTrACS)を、ウェブで閲覧しやすい形式に変換したものです。

最終更新日:2021-10-25